^^
Saratoga-Weather Station Historical Data
Daily Summary for September 10, 2020 Units:  Metric    English   Both
Daily Weekly Monthly Yearly Custom
  High: Low: Average:
Temperature: 36 °C 20.5 °C 28.7 °C
Dew Point: 17.8 °C 14.8 °C 16.4 °C
Humidity: 76% 29% 50%
Wind Speed: 11.1km/h 0km/h 2km/h
Wind Gust: 17.7km/h - -
Wind- - SE
Pressure: 1013.9 hPa 1009.8 hPa -
Precipitation: 0.0 mm    
Historical Graphs
 
 
Tabular Data for September 10, 2020
Time Temperature Dew Point Pressure Wind Wind Speed Wind Gust Humidity Rainfall Rate (Hourly) solar
00:03 25.8 °C 16.9 °C 1013.2 hPa WNW 1.4 km/h 4.8 km/h 58% 0.0 mm 0 W/m2
00:08 25.6 °C 17 °C 1013.2 hPa West 1.4 km/h 1.6 km/h 59% 0.0 mm 0 W/m2
00:13 25.4 °C 16.8 °C 1013.2 hPa WSW 1.4 km/h 3.2 km/h 59% 0.0 mm 0 W/m2
00:18 25.3 °C 17 °C 1013.2 hPa Calm   1.6 km/h 60% 0.0 mm 0 W/m2
00:23 25.2 °C 16.9 °C 1013.2 hPa Calm   4.8 km/h 60% 0.0 mm 0 W/m2
00:28 25.2 °C 16.6 °C 1013.2 hPa Calm   3.2 km/h 59% 0.0 mm 0 W/m2
00:33 25.2 °C 16.9 °C 1013.5 hPa Calm     60% 0.0 mm 0 W/m2
00:38 25.2 °C 16.3 °C 1013.5 hPa West 6.4 km/h 6.4 km/h 58% 0.0 mm 0 W/m2
00:43 25.6 °C 16.4 °C 1013.5 hPa West 6.4 km/h 9.7 km/h 57% 0.0 mm 0 W/m2
00:48 25.8 °C 16.4 °C 1013.5 hPa Calm   4.8 km/h 56% 0.0 mm 0 W/m2
00:53 25.9 °C 16.2 °C 1013.5 hPa WNW 4.7 km/h 4.8 km/h 55% 0.0 mm 0 W/m2
00:58 25.9 °C 16.2 °C 1013.5 hPa West 4.7 km/h 6.4 km/h 55% 0.0 mm 0 W/m2
01:03 25.9 °C 15.9 °C 1013.5 hPa NW 3.2 km/h 11.3 km/h 54% 0.0 mm 0 W/m2
01:08 26 °C 16.3 °C 1013.9 hPa NNW 1.4 km/h 3.2 km/h 55% 0.0 mm 0 W/m2
01:13 25.9 °C 16.2 °C 1013.9 hPa WNW 6.4 km/h 9.7 km/h 55% 0.0 mm 0 W/m2
01:18 25.9 °C 16.2 °C 1013.9 hPa WSW 3.2 km/h 4.8 km/h 55% 0.0 mm 0 W/m2
01:23 25.8 °C 16.1 °C 1013.9 hPa East 3.2 km/h 3.2 km/h 55% 0.0 mm 0 W/m2
01:28 25.8 °C 16.4 °C 1013.9 hPa Calm   3.2 km/h 56% 0.0 mm 0 W/m2
01:33 25.7 °C 16.3 °C 1013.9 hPa SE 1.4 km/h 3.2 km/h 56% 0.0 mm 0 W/m2
01:38 25.7 °C 16.3 °C 1013.5 hPa Calm   8 km/h 56% 0.0 mm 0 W/m2
01:43 25.6 °C 16.2 °C 1013.5 hPa SW 3.2 km/h 4.8 km/h 56% 0.0 mm 0 W/m2
01:48 25.5 °C 16.4 °C 1013.5 hPa NNW 3.2 km/h 8 km/h 57% 0.0 mm 0 W/m2
01:53 25.4 °C 16.3 °C 1013.5 hPa NW 1.4 km/h 1.6 km/h 57% 0.0 mm 0 W/m2
01:58 25.4 °C 16.3 °C 1013.5 hPa Calm   4.8 km/h 57% 0.0 mm 0 W/m2
02:03 25.3 °C 16.2 °C 1013.5 hPa WSW 3.2 km/h 3.2 km/h 57% 0.0 mm 0 W/m2
02:08 25.3 °C 16.2 °C 1013.5 hPa NNE 4.7 km/h 8 km/h 57% 0.0 mm 0 W/m2
02:13 25.3 °C 16.2 °C 1013.2 hPa SSW 1.4 km/h 3.2 km/h 57% 0.0 mm 0 W/m2
02:18 25.3 °C 16.2 °C 1013.5 hPa West 1.4 km/h 6.4 km/h 57% 0.0 mm 0 W/m2
02:23 25.3 °C 16.4 °C 1013.5 hPa SSW 3.2 km/h 6.4 km/h 58% 0.0 mm 0 W/m2
02:28 25.2 °C 16.3 °C 1013.5 hPa SW 6.4 km/h 17.7 km/h 58% 0.0 mm 0 W/m2
02:34 25.1 °C 16.3 °C 1013.5 hPa South 3.2 km/h 8 km/h 58% 0.0 mm 0 W/m2
02:39 25 °C 16.2 °C 1013.2 hPa SE 4.7 km/h 17.7 km/h 58% 0.0 mm 0 W/m2
02:44 24.9 °C 16.1 °C 1013.5 hPa WSW 1.4 km/h 3.2 km/h 58% 0.0 mm 0 W/m2
02:49 24.8 °C 16.2 °C 1013.5 hPa Calm   1.6 km/h 59% 0.0 mm 0 W/m2
02:54 24.7 °C 16.1 °C 1013.5 hPa Calm   1.6 km/h 59% 0.0 mm 0 W/m2
02:59 24.6 °C 16.3 °C 1013.5 hPa West 3.2 km/h 3.2 km/h 60% 0.0 mm 0 W/m2
03:04 24.4 °C 16.4 °C 1013.2 hPa Calm   3.2 km/h 61% 0.0 mm 0 W/m2
03:09 24.3 °C 16 °C 1013.2 hPa ENE 4.7 km/h 4.8 km/h 60% 0.0 mm 0 W/m2
03:14 24.3 °C 16 °C 1013.2 hPa East 3.2 km/h 4.8 km/h 60% 0.0 mm 0 W/m2
03:19 24.3 °C 16 °C 1013.2 hPa Calm   3.2 km/h 60% 0.0 mm 0 W/m2
03:24 24.2 °C 16.2 °C 1013.2 hPa Calm   1.6 km/h 61% 0.0 mm 0 W/m2
03:29 24 °C 16.3 °C 1012.9 hPa SSE 4.7 km/h 4.8 km/h 62% 0.0 mm 0 W/m2
03:35 23.8 °C 16.3 °C 1012.9 hPa ESE 3.2 km/h 3.2 km/h 63% 0.0 mm 0 W/m2
03:40 23.7 °C 16.2 °C 1012.9 hPa Calm   3.2 km/h 63% 0.0 mm 0 W/m2
03:45 23.4 °C 16.2 °C 1012.9 hPa ESE 1.4 km/h 3.2 km/h 64% 0.0 mm 0 W/m2
03:50 23.3 °C 16.1 °C 1012.9 hPa ESE 1.4 km/h 3.2 km/h 64% 0.0 mm 0 W/m2
03:55 23.1 °C 16.2 °C 1012.9 hPa ESE 1.4 km/h 3.2 km/h 65% 0.0 mm 0 W/m2
04:00 22.9 °C 16.2 °C 1012.9 hPa ESE 1.4 km/h 3.2 km/h 66% 0.0 mm 0 W/m2
04:05 22.8 °C 16.1 °C 1012.9 hPa Calm   1.6 km/h 66% 0.0 mm 0 W/m2
04:10 22.7 °C 16.3 °C 1012.9 hPa Calm   3.2 km/h 67% 0.0 mm 0 W/m2
04:15 22.6 °C 16.2 °C 1012.9 hPa Calm     67% 0.0 mm 0 W/m2
04:20 22.4 °C 16.2 °C 1012.5 hPa Calm   3.2 km/h 68% 0.0 mm 0 W/m2
04:25 22.3 °C 16.1 °C 1012.5 hPa Calm     68% 0.0 mm 0 W/m2
04:30 22.2 °C 16.2 °C 1012.5 hPa ESE 1.4 km/h 1.6 km/h 69% 0.0 mm 0 W/m2
04:35 22.2 °C 16 °C 1012.2 hPa ESE 1.4 km/h 1.6 km/h 68% 0.0 mm 0 W/m2
04:40 22.2 °C 16 °C 1012.2 hPa ESE 1.4 km/h 3.2 km/h 68% 0.0 mm 0 W/m2
04:45 22.2 °C 16.2 °C 1012.2 hPa Calm     69% 0.0 mm 0 W/m2
04:51 22.2 °C 16.2 °C 1012.2 hPa Calm   3.2 km/h 69% 0.0 mm 0 W/m2
04:56 22.2 °C 16.2 °C 1012.2 hPa Calm     69% 0.0 mm 0 W/m2
05:01 22.1 °C 16.1 °C 1012.2 hPa Calm   4.8 km/h 69% 0.0 mm 0 W/m2
05:06 22 °C 16.3 °C 1012.2 hPa Calm     70% 0.0 mm 0 W/m2
05:11 21.9 °C 16.2 °C 1012.2 hPa South 1.4 km/h 4.8 km/h 70% 0.0 mm 0 W/m2
05:16 21.9 °C 16.2 °C 1012.2 hPa Calm   1.6 km/h 70% 0.0 mm 0 W/m2
05:21 21.8 °C 16.1 °C 1012.2 hPa Calm   3.2 km/h 70% 0.0 mm 0 W/m2
05:26 21.7 °C 16 °C 1011.9 hPa Calm   1.6 km/h 70% 0.0 mm 0 W/m2
05:31 21.6 °C 16.1 °C 1011.9 hPa South 1.4 km/h 1.6 km/h 71% 0.0 mm 0 W/m2
05:36 21.5 °C 16.2 °C 1011.9 hPa South 1.4 km/h 3.2 km/h 72% 0.0 mm 0 W/m2
05:41 21.4 °C 16.1 °C 1011.9 hPa South 1.4 km/h 1.6 km/h 72% 0.0 mm 0 W/m2
05:46 21.3 °C 16 °C 1012.2 hPa Calm   1.6 km/h 72% 0.0 mm 0 W/m2
05:51 21.2 °C 15.9 °C 1011.9 hPa South 1.4 km/h 1.6 km/h 72% 0.0 mm 0 W/m2
05:56 21.1 °C 16.1 °C 1011.9 hPa Calm   1.6 km/h 73% 0.0 mm 0 W/m2
06:01 21 °C 16 °C 1011.9 hPa Calm     73% 0.0 mm 0 W/m2
06:06 20.9 °C 16.1 °C 1011.9 hPa Calm     74% 0.0 mm 0 W/m2
06:11 20.8 °C 16 °C 1012.2 hPa Calm     74% 0.0 mm 0 W/m2
06:16 20.8 °C 16 °C 1012.2 hPa Calm     74% 0.0 mm 0 W/m2
06:21 20.7 °C 16.1 °C 1012.2 hPa Calm     75% 0.0 mm 0 W/m2
06:26 20.7 °C 16.1 °C 1012.2 hPa Calm     75% 0.0 mm 5 W/m2
06:31 20.7 °C 16.1 °C 1012.2 hPa Calm     75% 0.0 mm 7 W/m2
06:36 20.6 °C 16 °C 1012.2 hPa Calm     75% 0.0 mm 11 W/m2
06:41 20.6 °C 16.2 °C 1012.2 hPa Calm     76% 0.0 mm 14 W/m2
06:46 20.5 °C 16.1 °C 1012.2 hPa South 1.4 km/h 1.6 km/h 76% 0.0 mm 18 W/m2
06:51 20.5 °C 16.1 °C 1012.2 hPa Calm     76% 0.0 mm 21 W/m2
06:56 20.6 °C 16.2 °C 1012.2 hPa Calm     76% 0.0 mm 25 W/m2
07:01 20.6 °C 16.2 °C 1012.2 hPa South 1.4 km/h 1.6 km/h 76% 0.0 mm 26 W/m2
07:07 20.7 °C 16.3 °C 1012.2 hPa Calm   1.6 km/h 76% 0.0 mm 30 W/m2
07:12 20.8 °C 16.4 °C 1012.2 hPa Calm     76% 0.0 mm 33 W/m2
07:17 20.8 °C 16.4 °C 1012.2 hPa Calm   1.6 km/h 76% 0.0 mm 35 W/m2
07:22 20.9 °C 16.5 °C 1012.2 hPa Calm     76% 0.0 mm 39 W/m2
07:27 21 °C 16.6 °C 1012.5 hPa Calm     76% 0.0 mm 40 W/m2
07:32 21.2 °C 16.8 °C 1012.5 hPa Calm   1.6 km/h 76% 0.0 mm 42 W/m2
07:37 21.4 °C 16.6 °C 1012.5 hPa Calm   3.2 km/h 74% 0.0 mm 44 W/m2
07:42 21.8 °C 16.7 °C 1012.5 hPa Calm   1.6 km/h 73% 0.0 mm 46 W/m2
07:47 21.9 °C 16.6 °C 1012.5 hPa Calm     72% 0.0 mm 49 W/m2
07:52 22.1 °C 16.4 °C 1012.5 hPa Calm   3.2 km/h 70% 0.0 mm 53 W/m2
07:57 22.3 °C 16.6 °C 1012.5 hPa Calm     70% 0.0 mm 62 W/m2
08:02 22.4 °C 16.7 °C 1012.5 hPa Calm   3.2 km/h 70% 0.0 mm 63 W/m2
08:07 22.6 °C 16.6 °C 1012.5 hPa Calm     69% 0.0 mm 74 W/m2
08:12 22.8 °C 16.8 °C 1012.5 hPa Calm   3.2 km/h 69% 0.0 mm 65 W/m2
08:17 23.1 °C 16.6 °C 1012.5 hPa Calm   3.2 km/h 67% 0.0 mm 65 W/m2
08:22 23.4 °C 16.9 °C 1012.5 hPa Calm   3.2 km/h 67% 0.0 mm 67 W/m2
08:27 23.7 °C 17 °C 1012.5 hPa Calm   3.2 km/h 66% 0.0 mm 67 W/m2
08:32 23.9 °C 16.9 °C 1012.5 hPa North 1.4 km/h 3.2 km/h 65% 0.0 mm 70 W/m2
08:37 24.3 °C 17.1 °C 1012.5 hPa Calm   1.6 km/h 64% 0.0 mm 74 W/m2
08:42 24.6 °C 17.3 °C 1012.5 hPa NW 1.4 km/h 6.4 km/h 64% 0.0 mm 77 W/m2
08:47 24.6 °C 17.1 °C 1012.5 hPa NE 3.2 km/h 4.8 km/h 63% 0.0 mm 79 W/m2
08:52 24.7 °C 17.2 °C 1012.5 hPa Calm   3.2 km/h 63% 0.0 mm 113 W/m2
08:57 24.9 °C 17.1 °C 1012.5 hPa ENE 3.2 km/h 4.8 km/h 62% 0.0 mm 220 W/m2
09:02 25.3 °C 17.2 °C 1012.9 hPa East 1.4 km/h 3.2 km/h 61% 0.0 mm 290 W/m2
09:07 25.6 °C 17.3 °C 1012.9 hPa NE 3.2 km/h 6.4 km/h 60% 0.0 mm 309 W/m2
09:12 25.7 °C 17.1 °C 1012.5 hPa North 1.4 km/h 1.6 km/h 59% 0.0 mm 322 W/m2
09:17 25.8 °C 17.4 °C 1012.9 hPa Calm   6.4 km/h 60% 0.0 mm 334 W/m2
09:22 26 °C 17.4 °C 1012.9 hPa NE 4.7 km/h 4.8 km/h 59% 0.0 mm 348 W/m2
09:27 26.2 °C 17.3 °C 1012.9 hPa East 4.7 km/h 4.8 km/h 58% 0.0 mm 359 W/m2
09:32 26.2 °C 17.3 °C 1012.9 hPa ENE 1.4 km/h 3.2 km/h 58% 0.0 mm 374 W/m2
09:37 26.3 °C 17.4 °C 1012.9 hPa Calm   3.2 km/h 58% 0.0 mm 388 W/m2
09:42 26.5 °C 17 °C 1012.9 hPa ENE 4.7 km/h 8 km/h 56% 0.0 mm 338 W/m2
09:48 26.7 °C 16.9 °C 1012.9 hPa ESE 1.4 km/h 9.7 km/h 55% 0.0 mm 102 W/m2
09:53 26.8 °C 17 °C 1012.9 hPa NE 1.4 km/h 6.4 km/h 55% 0.0 mm 401 W/m2
09:58 27.1 °C 17.3 °C 1012.9 hPa East 1.4 km/h 8 km/h 55% 0.0 mm 438 W/m2
10:03 27.3 °C 17.2 °C 1012.9 hPa SSW 3.2 km/h 4.8 km/h 54% 0.0 mm 455 W/m2
10:08 27.7 °C 17.2 °C 1012.9 hPa NE 6.4 km/h 6.4 km/h 53% 0.0 mm 473 W/m2
10:13 27.8 °C 17 °C 1012.5 hPa East 1.4 km/h 6.4 km/h 52% 0.0 mm 483 W/m2
10:18 28 °C 17.2 °C 1012.5 hPa East 3.2 km/h 6.4 km/h 52% 0.0 mm 490 W/m2
10:23 28.1 °C 17.3 °C 1012.5 hPa SE 4.7 km/h 4.8 km/h 52% 0.0 mm 506 W/m2
10:28 28.3 °C 17.8 °C 1012.5 hPa NE 4.7 km/h 9.7 km/h 53% 0.0 mm 515 W/m2
10:33 28.5 °C 17.4 °C 1012.5 hPa Calm   1.6 km/h 51% 0.0 mm 515 W/m2
10:38 28.6 °C 17.5 °C 1012.5 hPa ESE 3.2 km/h 9.7 km/h 51% 0.0 mm 529 W/m2
10:43 28.7 °C 17.6 °C 1012.5 hPa NNE 7.9 km/h 9.7 km/h 51% 0.0 mm 529 W/m2
10:48 28.8 °C 17.7 °C 1012.5 hPa NE 3.2 km/h 3.2 km/h 51% 0.0 mm 548 W/m2
10:53 29.1 °C 17.6 °C 1012.2 hPa WNW 3.2 km/h 6.4 km/h 50% 0.0 mm 566 W/m2
10:58 29.2 °C 17.4 °C 1012.2 hPa NNE 1.4 km/h 1.6 km/h 49% 0.0 mm 587 W/m2
11:03 29.3 °C 17.2 °C 1012.2 hPa NE 1.4 km/h 4.8 km/h 48% 0.0 mm 599 W/m2
11:08 29.5 °C 17.3 °C 1012.2 hPa NE 1.4 km/h 6.4 km/h 48% 0.0 mm 608 W/m2
11:13 29.8 °C 17.3 °C 1012.2 hPa Calm   4.8 km/h 47% 0.0 mm 619 W/m2
11:18 30.2 °C 17.3 °C 1012.2 hPa ENE 1.4 km/h 11.3 km/h 46% 0.0 mm 628 W/m2
11:23 30.4 °C 17.1 °C 1012.2 hPa NNW 1.4 km/h 14.5 km/h 45% 0.0 mm 642 W/m2
11:28 30.6 °C 17 °C 1012.2 hPa NNE 11.1 km/h 12.9 km/h 44% 0.0 mm 640 W/m2
11:33 30.7 °C 17 °C 1012.2 hPa NNE 3.2 km/h 14.5 km/h 44% 0.0 mm 649 W/m2
11:38 30.8 °C 17.1 °C 1012.2 hPa NNE 3.2 km/h 8 km/h 44% 0.0 mm 652 W/m2
11:43 30.9 °C 16.9 °C 1012.2 hPa East 4.7 km/h 6.4 km/h 43% 0.0 mm 666 W/m2
11:48 31.2 °C 17.1 °C 1012.2 hPa NE 1.4 km/h 9.7 km/h 43% 0.0 mm 668 W/m2
11:53 31.3 °C 16.9 °C 1012.2 hPa NNW 3.2 km/h 4.8 km/h 42% 0.0 mm 668 W/m2
11:58 31.6 °C 17.1 °C 1012.2 hPa NE 6.4 km/h 6.4 km/h 42% 0.0 mm 673 W/m2
12:04 31.7 °C 17.2 °C 1012.2 hPa ENE 1.4 km/h 6.4 km/h 42% 0.0 mm 693 W/m2
12:09 31.8 °C 16.9 °C 1012.2 hPa NNE 3.2 km/h 4.8 km/h 41% 0.0 mm 705 W/m2
12:14 32.1 °C 17.2 °C 1012.2 hPa West 3.2 km/h 4.8 km/h 41% 0.0 mm 731 W/m2
12:19 32.2 °C 17.3 °C 1012.2 hPa ENE 3.2 km/h 3.2 km/h 41% 0.0 mm 441 W/m2
12:24 32.4 °C 16.7 °C 1012.2 hPa ENE 3.2 km/h 9.7 km/h 39% 0.0 mm 387 W/m2
12:29 32.4 °C 16.7 °C 1011.9 hPa ESE 3.2 km/h 4.8 km/h 39% 0.0 mm 543 W/m2
12:34 32.4 °C 17.1 °C 1011.9 hPa East 3.2 km/h 9.7 km/h 40% 0.0 mm 671 W/m2
12:39 32.7 °C 17.3 °C 1011.9 hPa SE 4.7 km/h 8 km/h 40% 0.0 mm 759 W/m2
12:44 32.9 °C 17.1 °C 1011.9 hPa NE 1.4 km/h 9.7 km/h 39% 0.0 mm 729 W/m2
12:49 33 °C 16.8 °C 1011.9 hPa NNE 1.4 km/h 3.2 km/h 38% 0.0 mm 742 W/m2
12:54 33.2 °C 17 °C 1011.9 hPa ENE 3.2 km/h 4.8 km/h 38% 0.0 mm 640 W/m2
12:59 33.2 °C 17.4 °C 1011.9 hPa NNW 3.2 km/h 4.8 km/h 39% 0.0 mm 802 W/m2
13:04 33.4 °C 17.1 °C 1011.9 hPa ESE 3.2 km/h 11.3 km/h 38% 0.0 mm 796 W/m2
13:09 33.6 °C 16.9 °C 1011.9 hPa ENE 3.2 km/h 3.2 km/h 37% 0.0 mm 788 W/m2
13:14 33.8 °C 17.1 °C 1011.9 hPa North 4.7 km/h 6.4 km/h 37% 0.0 mm 782 W/m2
13:19 33.9 °C 17.2 °C 1011.9 hPa Calm   1.6 km/h 37% 0.0 mm 777 W/m2
13:24 33.7 °C 16.6 °C 1011.5 hPa WSW 3.2 km/h 6.4 km/h 36% 0.0 mm 589 W/m2
13:29 33.6 °C 16.9 °C 1011.5 hPa SE 4.7 km/h 8 km/h 37% 0.0 mm 714 W/m2
13:34 33.6 °C 16.9 °C 1011.5 hPa Calm   4.8 km/h 37% 0.0 mm 432 W/m2
13:39 33.6 °C 16.9 °C 1011.5 hPa NE 3.2 km/h 8 km/h 37% 0.0 mm 561 W/m2
13:45 33.8 °C 16.6 °C 1011.5 hPa West 4.7 km/h 8 km/h 36% 0.0 mm 846 W/m2
13:50 34 °C 16.4 °C 1011.2 hPa East 4.7 km/h 9.7 km/h 35% 0.0 mm 341 W/m2
13:55 33.9 °C 17.2 °C 1011.2 hPa East 4.7 km/h 8 km/h 37% 0.0 mm 366 W/m2
14:00 34 °C 17.3 °C 1011.2 hPa East 6.4 km/h 9.7 km/h 37% 0.0 mm 555 W/m2
14:05 34.3 °C 16.6 °C 1011.2 hPa ENE 6.4 km/h 12.9 km/h 35% 0.0 mm 817 W/m2
14:10 34.1 °C 16.5 °C 1011.2 hPa NNW 1.4 km/h 3.2 km/h 35% 0.0 mm 540 W/m2
14:15 34.2 °C 16.1 °C 1011.2 hPa NW 4.7 km/h 12.9 km/h 34% 0.0 mm 359 W/m2
14:20 34.3 °C 16.6 °C 1011.2 hPa ENE 4.7 km/h 6.4 km/h 35% 0.0 mm 410 W/m2
14:25 34.5 °C 16.4 °C 1011.2 hPa SW 1.4 km/h 8 km/h 34% 0.0 mm 315 W/m2
14:30 34.6 °C 16.4 °C 1011.2 hPa ESE 1.4 km/h 3.2 km/h 34% 0.0 mm 714 W/m2
14:35 34.9 °C 16.2 °C 1011.2 hPa NE 6.4 km/h 6.4 km/h 33% 0.0 mm 570 W/m2
14:40 35.1 °C 16.9 °C 1011.2 hPa East 4.7 km/h 9.7 km/h 34% 0.0 mm 816 W/m2
14:45 35.2 °C 16.5 °C 1010.8 hPa ENE 4.7 km/h 8 km/h 33% 0.0 mm 777 W/m2
14:50 35.4 °C 17.1 °C 1010.8 hPa ESE 3.2 km/h 6.4 km/h 34% 0.0 mm 780 W/m2
14:55 35.4 °C 17.1 °C 1011.2 hPa East 3.2 km/h 6.4 km/h 34% 0.0 mm 715 W/m2
15:00 35.3 °C 17.1 °C 1011.2 hPa East 3.2 km/h 6.4 km/h 34% 0.0 mm 738 W/m2
15:05 35.3 °C 16.6 °C 1011.2 hPa ENE 4.7 km/h 14.5 km/h 33% 0.0 mm 737 W/m2
15:10 35.2 °C 16.5 °C 1010.8 hPa ENE 1.4 km/h 12.9 km/h 33% 0.0 mm 738 W/m2
15:15 35.3 °C 16.1 °C 1010.8 hPa SE 6.4 km/h 6.4 km/h 32% 0.0 mm 737 W/m2
15:20 35.6 °C 16.4 °C 1010.8 hPa ESE 4.7 km/h 6.4 km/h 32% 0.0 mm 714 W/m2
15:25 35.6 °C 15.9 °C 1010.8 hPa ESE 3.2 km/h 6.4 km/h 31% 0.0 mm 719 W/m2
15:30 35.4 °C 15.7 °C 1010.8 hPa SE 3.2 km/h 4.8 km/h 31% 0.0 mm 738 W/m2
15:35 35.5 °C 15.3 °C 1010.8 hPa WNW 3.2 km/h 6.4 km/h 30% 0.0 mm 719 W/m2
15:40 35.4 °C 15.7 °C 1010.8 hPa ENE 4.7 km/h 4.8 km/h 31% 0.0 mm 696 W/m2
15:45 35.6 °C 15.9 °C 1010.8 hPa ENE 4.7 km/h 6.4 km/h 31% 0.0 mm 707 W/m2
15:50 35.7 °C 15.4 °C 1010.8 hPa North 1.4 km/h 11.3 km/h 30% 0.0 mm 728 W/m2
15:56 35.6 °C 15.9 °C 1010.5 hPa NE 3.2 km/h 4.8 km/h 31% 0.0 mm 701 W/m2
16:01 35.7 °C 15.4 °C 1010.5 hPa Calm   6.4 km/h 30% 0.0 mm 601 W/m2
16:06 35.6 °C 15.3 °C 1010.5 hPa ESE 4.7 km/h 6.4 km/h 30% 0.0 mm 271 W/m2
16:11 35.4 °C 15.7 °C 1010.5 hPa East 4.7 km/h 4.8 km/h 31% 0.0 mm 350 W/m2
16:16 35.3 °C 15.6 °C 1010.5 hPa East 3.2 km/h 6.4 km/h 31% 0.0 mm 436 W/m2
16:21 35.2 °C 15.5 °C 1010.2 hPa Calm   4.8 km/h 31% 0.0 mm 281 W/m2
16:26 34.8 °C 16.1 °C 1010.5 hPa NE 1.4 km/h 8 km/h 33% 0.0 mm 301 W/m2
16:31 34.7 °C 16.1 °C 1010.2 hPa ENE 1.4 km/h 3.2 km/h 33% 0.0 mm 202 W/m2
16:36 34.6 °C 15.5 °C 1010.2 hPa ENE 4.7 km/h 4.8 km/h 32% 0.0 mm 239 W/m2
16:42 34.6 °C 15.5 °C 1010.2 hPa ESE 3.2 km/h 4.8 km/h 32% 0.0 mm 304 W/m2
16:47 34.6 °C 16.4 °C 1010.2 hPa ESE 1.4 km/h 3.2 km/h 34% 0.0 mm 246 W/m2
16:52 34.5 °C 15.4 °C 1010.2 hPa NNE 1.4 km/h 4.8 km/h 32% 0.0 mm 338 W/m2
16:57 34.5 °C 15.4 °C 1010.2 hPa NE 4.7 km/h 6.4 km/h 32% 0.0 mm 257 W/m2
17:02 34.5 °C 15.4 °C 1010.2 hPa ENE 1.4 km/h 3.2 km/h 32% 0.0 mm 267 W/m2
17:07 34.4 °C 15.8 °C 1010.2 hPa Calm   3.2 km/h 33% 0.0 mm 304 W/m2
17:12 34.5 °C 15.9 °C 1010.2 hPa NE 1.4 km/h 3.2 km/h 33% 0.0 mm 534 W/m2
17:17 34.8 °C 16.1 °C 1010.2 hPa SE 4.7 km/h 6.4 km/h 33% 0.0 mm 510 W/m2
17:22 35.1 °C 15.9 °C 1010.2 hPa WSW 1.4 km/h 6.4 km/h 32% 0.0 mm 541 W/m2
17:27 35.4 °C 16.2 °C 1010.2 hPa ESE 1.4 km/h 3.2 km/h 32% 0.0 mm 543 W/m2
17:32 35.6 °C 15.9 °C 1010.2 hPa ENE 1.4 km/h 4.8 km/h 31% 0.0 mm 413 W/m2
17:37 35.6 °C 16.4 °C 1010.2 hPa SE 3.2 km/h 6.4 km/h 32% 0.0 mm 446 W/m2
17:42 35.6 °C 15.9 °C 1010.2 hPa NNE 4.7 km/h 6.4 km/h 31% 0.0 mm 448 W/m2
17:47 35.6 °C 15.3 °C 1010.2 hPa ESE 1.4 km/h 3.2 km/h 30% 0.0 mm 394 W/m2
17:52 35.6 °C 15.3 °C 1010.2 hPa ENE 1.4 km/h 3.2 km/h 30% 0.0 mm 253 W/m2
17:57 35.7 °C 15.9 °C 1010.2 hPa ESE 1.4 km/h 12.9 km/h 31% 0.0 mm 499 W/m2
18:02 35.9 °C 15.6 °C 1010.2 hPa SE 1.4 km/h 4.8 km/h 30% 0.0 mm 380 W/m2
18:07 36 °C 15.7 °C 1010.2 hPa SE 4.7 km/h 6.4 km/h 30% 0.0 mm 251 W/m2
18:12 35.8 °C 15 °C 1010.2 hPa WNW 6.4 km/h 6.4 km/h 29% 0.0 mm 209 W/m2
18:17 35.4 °C 15.7 °C 1010.2 hPa East 1.4 km/h 4.8 km/h 31% 0.0 mm 192 W/m2
18:22 35.2 °C 15.5 °C 1010.2 hPa ESE 1.4 km/h 3.2 km/h 31% 0.0 mm 192 W/m2
18:27 35.1 °C 14.9 °C 1010.2 hPa Calm   4.8 km/h 30% 0.0 mm 308 W/m2
18:32 35.1 °C 15.9 °C 1010.2 hPa Calm   3.2 km/h 32% 0.0 mm 315 W/m2
18:37 35.2 °C 15.5 °C 1009.8 hPa ESE 1.4 km/h 3.2 km/h 31% 0.0 mm 388 W/m2
18:42 35.3 °C 15.1 °C 1009.8 hPa ESE 3.2 km/h 9.7 km/h 30% 0.0 mm 369 W/m2
18:47 35.5 °C 15.3 °C 1009.8 hPa Calm   1.6 km/h 30% 0.0 mm 360 W/m2
18:52 35.6 °C 14.8 °C 1009.8 hPa East 6.4 km/h 6.4 km/h 29% 0.0 mm 348 W/m2
18:57 35.6 °C 14.8 °C 1009.8 hPa NNE 3.2 km/h 4.8 km/h 29% 0.0 mm 332 W/m2
19:02 35.6 °C 15.3 °C 1009.8 hPa Calm   4.8 km/h 30% 0.0 mm 320 W/m2
19:07 35.8 °C 15 °C 1009.8 hPa NE 3.2 km/h 6.4 km/h 29% 0.0 mm 274 W/m2
19:12 35.6 °C 15.3 °C 1009.8 hPa East 1.4 km/h 4.8 km/h 30% 0.0 mm 113 W/m2
19:17 35.2 °C 15.5 °C 1009.8 hPa Calm   3.2 km/h 31% 0.0 mm 91 W/m2
19:22 34.9 °C 15.8 °C 1009.8 hPa Calm   1.6 km/h 32% 0.0 mm 118 W/m2
19:27 34.6 °C 16.4 °C 1009.8 hPa Calm   1.6 km/h 34% 0.0 mm 81 W/m2
19:32 34.2 °C 16.1 °C 1009.8 hPa ENE 1.4 km/h 3.2 km/h 34% 0.0 mm 97 W/m2
19:37 33.8 °C 16.2 °C 1009.8 hPa NE 1.4 km/h 1.6 km/h 35% 0.0 mm 84 W/m2
19:42 33.5 °C 16.4 °C 1009.8 hPa Calm     36% 0.0 mm 102 W/m2
19:47 33.3 °C 16.6 °C 1010.2 hPa Calm   3.2 km/h 37% 0.0 mm 69 W/m2
19:52 32.9 °C 16.3 °C 1009.8 hPa Calm   1.6 km/h 37% 0.0 mm 62 W/m2
19:57 32.6 °C 16.4 °C 1009.8 hPa Calm   3.2 km/h 38% 0.0 mm 54 W/m2
20:02 32.3 °C 16.6 °C 1009.8 hPa Calm     39% 0.0 mm 49 W/m2
20:08 32.1 °C 16.4 °C 1010.2 hPa NNE 1.4 km/h 1.6 km/h 39% 0.0 mm 44 W/m2
20:13 31.8 °C 16.9 °C 1010.2 hPa Calm   1.6 km/h 41% 0.0 mm 33 W/m2
20:18 31.6 °C 16.7 °C 1010.2 hPa Calm   1.6 km/h 41% 0.0 mm 26 W/m2
20:23 31.3 °C 16.9 °C 1010.2 hPa NNE 1.4 km/h 1.6 km/h 42% 0.0 mm 19 W/m2
20:28 31 °C 16.6 °C 1010.5 hPa Calm     42% 0.0 mm 16 W/m2
20:33 30.7 °C 16.3 °C 1010.5 hPa SW 1.4 km/h 4.8 km/h 42% 0.0 mm 14 W/m2
20:38 30.3 °C 16.3 °C 1010.5 hPa SSE 1.4 km/h 3.2 km/h 43% 0.0 mm 11 W/m2
20:43 30.1 °C 16.9 °C 1010.8 hPa SSE 1.4 km/h 4.8 km/h 45% 0.0 mm 7 W/m2
20:48 29.8 °C 16.2 °C 1010.5 hPa SSE 1.4 km/h 1.6 km/h 44% 0.0 mm 5 W/m2
20:53 29.8 °C 16.2 °C 1010.5 hPa WNW 1.4 km/h 4.8 km/h 44% 0.0 mm 0 W/m2
20:58 29.8 °C 16.2 °C 1010.8 hPa NE 1.4 km/h 4.8 km/h 44% 0.0 mm 0 W/m2
21:03 29.9 °C 16.7 °C 1010.8 hPa Calm   1.6 km/h 45% 0.0 mm 0 W/m2
21:08 29.7 °C 16.8 °C 1010.8 hPa SE 1.4 km/h 4.8 km/h 46% 0.0 mm 0 W/m2
21:13 29.4 °C 16.6 °C 1010.8 hPa SSW 1.4 km/h 3.2 km/h 46% 0.0 mm 0 W/m2
21:18 29.1 °C 17 °C 1010.8 hPa Calm   1.6 km/h 48% 0.0 mm 0 W/m2
21:23 28.8 °C 16.7 °C 1010.8 hPa WSW 3.2 km/h 3.2 km/h 48% 0.0 mm 0 W/m2
21:28 28.6 °C 16.8 °C 1011.2 hPa Calm   4.8 km/h 49% 0.0 mm 0 W/m2
Juneau County Weather
Compliments of Weather Underground - 4 mb